sensor_id;sensor_type;location;lat;lon;timestamp;P1;durP1;ratioP1;P2;durP2;ratioP2
15536;SDS011;7870;52.448;13.270;2023-11-21T00:02:02;6.68;;;2.22;;
15536;SDS011;7870;52.448;13.270;2023-11-21T00:04:28;4.03;;;2.30;;
15536;SDS011;7870;52.448;13.270;2023-11-21T00:06:55;5.88;;;3.15;;
15536;SDS011;7870;52.448;13.270;2023-11-21T00:09:21;7.30;;;3.22;;
15536;SDS011;7870;52.448;13.270;2023-11-21T00:11:48;7.07;;;3.97;;
15536;SDS011;7870;52.448;13.270;2023-11-21T00:14:15;8.90;;;4.05;;
15536;SDS011;7870;52.448;13.270;2023-11-21T00:16:41;8.35;;;4.22;;
15536;SDS011;7870;52.448;13.270;2023-11-21T00:19:08;9.10;;;4.78;;
15536;SDS011;7870;52.448;13.270;2023-11-21T00:21:35;8.52;;;5.05;;
15536;SDS011;7870;52.448;13.270;2023-11-21T00:24:01;10.43;;;5.38;;
15536;SDS011;7870;52.448;13.270;2023-11-21T00:26:28;8.77;;;5.03;;
15536;SDS011;7870;52.448;13.270;2023-11-21T00:29:00;14.75;;;5.85;;
15536;SDS011;7870;52.448;13.270;2023-11-21T00:31:27;9.32;;;5.53;;
15536;SDS011;7870;52.448;13.270;2023-11-21T00:33:53;9.90;;;6.13;;
15536;SDS011;7870;52.448;13.270;2023-11-21T00:36:21;11.30;;;6.45;;
15536;SDS011;7870;52.448;13.270;2023-11-21T00:38:48;9.90;;;6.88;;
15536;SDS011;7870;52.448;13.270;2023-11-21T00:41:14;10.35;;;7.30;;
15536;SDS011;7870;52.448;13.270;2023-11-21T00:43:41;11.18;;;7.18;;
15536;SDS011;7870;52.448;13.270;2023-11-21T00:46:07;11.38;;;6.78;;
15536;SDS011;7870;52.448;13.270;2023-11-21T00:48:34;13.20;;;7.25;;
15536;SDS011;7870;52.448;13.270;2023-11-21T00:51:01;14.32;;;7.80;;
15536;SDS011;7870;52.448;13.270;2023-11-21T00:53:27;17.33;;;8.27;;
15536;SDS011;7870;52.448;13.270;2023-11-21T00:55:54;13.85;;;8.80;;
15536;SDS011;7870;52.448;13.270;2023-11-21T00:58:24;12.40;;;8.23;;
15536;SDS011;7870;52.448;13.270;2023-11-21T01:00:51;18.90;;;9.15;;
15536;SDS011;7870;52.448;13.270;2023-11-21T01:03:18;18.10;;;8.05;;
15536;SDS011;7870;52.448;13.270;2023-11-21T01:05:45;16.98;;;9.02;;
15536;SDS011;7870;52.448;13.270;2023-11-21T01:08:12;16.17;;;8.40;;
15536;SDS011;7870;52.448;13.270;2023-11-21T01:10:38;15.32;;;9.23;;
15536;SDS011;7870;52.448;13.270;2023-11-21T01:13:05;15.95;;;9.13;;
15536;SDS011;7870;52.448;13.270;2023-11-21T01:15:31;17.58;;;9.45;;
15536;SDS011;7870;52.448;13.270;2023-11-21T01:17:58;14.15;;;8.00;;
15536;SDS011;7870;52.448;13.270;2023-11-21T01:20:25;16.92;;;7.93;;
15536;SDS011;7870;52.448;13.270;2023-11-21T01:22:52;12.40;;;8.18;;
15536;SDS011;7870;52.448;13.270;2023-11-21T01:25:20;12.27;;;8.25;;
15536;SDS011;7870;52.448;13.270;2023-11-21T01:27:48;18.48;;;9.88;;
15536;SDS011;7870;52.448;13.270;2023-11-21T01:30:15;12.35;;;8.23;;
15536;SDS011;7870;52.448;13.270;2023-11-21T01:32:42;12.43;;;8.57;;
15536;SDS011;7870;52.448;13.270;2023-11-21T01:35:10;10.52;;;7.13;;
15536;SDS011;7870;52.448;13.270;2023-11-21T01:37:37;13.02;;;8.20;;
15536;SDS011;7870;52.448;13.270;2023-11-21T01:40:04;9.68;;;7.28;;
15536;SDS011;7870;52.448;13.270;2023-11-21T01:42:37;11.25;;;7.40;;
15536;SDS011;7870;52.448;13.270;2023-11-21T01:45:03;10.48;;;8.00;;
15536;SDS011;7870;52.448;13.270;2023-11-21T01:47:32;12.63;;;8.05;;
15536;SDS011;7870;52.448;13.270;2023-11-21T01:49:59;13.68;;;8.45;;
15536;SDS011;7870;52.448;13.270;2023-11-21T01:52:27;12.20;;;7.85;;
15536;SDS011;7870;52.448;13.270;2023-11-21T01:54:54;15.43;;;9.40;;
15536;SDS011;7870;52.448;13.270;2023-11-21T01:57:21;13.35;;;9.70;;
15536;SDS011;7870;52.448;13.270;2023-11-21T01:59:47;15.65;;;8.90;;
15536;SDS011;7870;52.448;13.270;2023-11-21T02:02:15;14.15;;;9.90;;
15536;SDS011;7870;52.448;13.270;2023-11-21T02:04:42;15.48;;;9.45;;
15536;SDS011;7870;52.448;13.270;2023-11-21T02:07:08;15.32;;;9.82;;
15536;SDS011;7870;52.448;13.270;2023-11-21T02:09:36;15.30;;;9.82;;
15536;SDS011;7870;52.448;13.270;2023-11-21T02:12:08;13.57;;;9.40;;
15536;SDS011;7870;52.448;13.270;2023-11-21T02:14:38;11.50;;;9.20;;
15536;SDS011;7870;52.448;13.270;2023-11-21T02:17:05;12.02;;;9.27;;
15536;SDS011;7870;52.448;13.270;2023-11-21T02:19:31;9.73;;;7.90;;
15536;SDS011;7870;52.448;13.270;2023-11-21T02:21:59;13.95;;;9.18;;
15536;SDS011;7870;52.448;13.270;2023-11-21T02:24:29;12.77;;;8.88;;
15536;SDS011;7870;52.448;13.270;2023-11-21T02:26:55;16.40;;;9.73;;
15536;SDS011;7870;52.448;13.270;2023-11-21T02:29:22;12.48;;;8.20;;
15536;SDS011;7870;52.448;13.270;2023-11-21T02:31:54;12.45;;;7.95;;
15536;SDS011;7870;52.448;13.270;2023-11-21T02:34:21;13.43;;;8.10;;
15536;SDS011;7870;52.448;13.270;2023-11-21T02:36:48;12.52;;;7.88;;
15536;SDS011;7870;52.448;13.270;2023-11-21T02:39:18;11.88;;;8.50;;
15536;SDS011;7870;52.448;13.270;2023-11-21T02:41:48;11.00;;;8.45;;
15536;SDS011;7870;52.448;13.270;2023-11-21T02:44:15;14.00;;;9.32;;
15536;SDS011;7870;52.448;13.270;2023-11-21T02:46:41;11.75;;;8.45;;
15536;SDS011;7870;52.448;13.270;2023-11-21T02:49:08;14.05;;;9.00;;
15536;SDS011;7870;52.448;13.270;2023-11-21T02:51:36;12.93;;;9.30;;
15536;SDS011;7870;52.448;13.270;2023-11-21T02:54:05;10.85;;;8.30;;
15536;SDS011;7870;52.448;13.270;2023-11-21T02:56:33;12.75;;;9.05;;
15536;SDS011;7870;52.448;13.270;2023-11-21T02:59:00;11.57;;;8.90;;
15536;SDS011;7870;52.448;13.270;2023-11-21T03:01:26;11.95;;;9.43;;
15536;SDS011;7870;52.448;13.270;2023-11-21T03:03:54;13.45;;;9.52;;
15536;SDS011;7870;52.448;13.270;2023-11-21T03:06:22;14.68;;;10.07;;
15536;SDS011;7870;52.448;13.270;2023-11-21T03:08:48;11.82;;;9.75;;
15536;SDS011;7870;52.448;13.270;2023-11-21T03:11:15;11.70;;;8.68;;
15536;SDS011;7870;52.448;13.270;2023-11-21T03:13:42;13.82;;;9.98;;
15536;SDS011;7870;52.448;13.270;2023-11-21T03:16:09;15.63;;;10.25;;
15536;SDS011;7870;52.448;13.270;2023-11-21T03:18:39;16.52;;;10.52;;
15536;SDS011;7870;52.448;13.270;2023-11-21T03:21:06;13.03;;;9.33;;
15536;SDS011;7870;52.448;13.270;2023-11-21T03:23:36;13.05;;;9.68;;
15536;SDS011;7870;52.448;13.270;2023-11-21T03:26:04;11.80;;;9.73;;
15536;SDS011;7870;52.448;13.270;2023-11-21T03:28:34;10.68;;;9.02;;
15536;SDS011;7870;52.448;13.270;2023-11-21T03:31:01;12.05;;;8.95;;
15536;SDS011;7870;52.448;13.270;2023-11-21T03:33:29;13.40;;;9.00;;
15536;SDS011;7870;52.448;13.270;2023-11-21T03:35:55;12.00;;;9.48;;
15536;SDS011;7870;52.448;13.270;2023-11-21T03:38:22;10.57;;;8.57;;
15536;SDS011;7870;52.448;13.270;2023-11-21T03:40:49;10.35;;;8.73;;
15536;SDS011;7870;52.448;13.270;2023-11-21T03:43:16;12.27;;;9.07;;
15536;SDS011;7870;52.448;13.270;2023-11-21T03:45:44;12.55;;;8.65;;
15536;SDS011;7870;52.448;13.270;2023-11-21T03:48:10;11.25;;;8.82;;
15536;SDS011;7870;52.448;13.270;2023-11-21T03:50:38;10.98;;;9.10;;
15536;SDS011;7870;52.448;13.270;2023-11-21T03:53:05;12.18;;;9.23;;
15536;SDS011;7870;52.448;13.270;2023-11-21T03:55:32;11.20;;;9.55;;
15536;SDS011;7870;52.448;13.270;2023-11-21T03:57:58;12.45;;;9.45;;
15536;SDS011;7870;52.448;13.270;2023-11-21T04:00:25;12.55;;;9.27;;
15536;SDS011;7870;52.448;13.270;2023-11-21T04:02:55;14.15;;;10.23;;
15536;SDS011;7870;52.448;13.270;2023-11-21T04:05:21;14.18;;;9.43;;
15536;SDS011;7870;52.448;13.270;2023-11-21T04:07:49;12.90;;;10.10;;
15536;SDS011;7870;52.448;13.270;2023-11-21T04:10:16;13.60;;;9.38;;
15536;SDS011;7870;52.448;13.270;2023-11-21T04:12:43;11.77;;;8.43;;
15536;SDS011;7870;52.448;13.270;2023-11-21T04:15:10;12.10;;;9.88;;
15536;SDS011;7870;52.448;13.270;2023-11-21T04:17:37;10.15;;;8.95;;
15536;SDS011;7870;52.448;13.270;2023-11-21T04:20:04;12.65;;;9.48;;
15536;SDS011;7870;52.448;13.270;2023-11-21T04:25:10;14.00;;;9.77;;
15536;SDS011;7870;52.448;13.270;2023-11-21T04:27:40;14.35;;;10.65;;
15536;SDS011;7870;52.448;13.270;2023-11-21T04:30:07;12.73;;;9.10;;
15536;SDS011;7870;52.448;13.270;2023-11-21T04:32:33;15.13;;;10.27;;
15536;SDS011;7870;52.448;13.270;2023-11-21T04:35:00;16.23;;;11.27;;
15536;SDS011;7870;52.448;13.270;2023-11-21T04:37:26;12.02;;;9.63;;
15536;SDS011;7870;52.448;13.270;2023-11-21T04:39:53;15.35;;;11.35;;
15536;SDS011;7870;52.448;13.270;2023-11-21T04:42:20;12.90;;;10.18;;
15536;SDS011;7870;52.448;13.270;2023-11-21T04:44:46;15.95;;;10.93;;
15536;SDS011;7870;52.448;13.270;2023-11-21T04:47:13;14.07;;;10.57;;
15536;SDS011;7870;52.448;13.270;2023-11-21T04:49:41;16.17;;;10.82;;
15536;SDS011;7870;52.448;13.270;2023-11-21T04:52:08;14.48;;;10.48;;
15536;SDS011;7870;52.448;13.270;2023-11-21T04:54:35;12.93;;;10.02;;
15536;SDS011;7870;52.448;13.270;2023-11-21T04:57:02;13.15;;;9.95;;
15536;SDS011;7870;52.448;13.270;2023-11-21T04:59:29;15.32;;;11.30;;
15536;SDS011;7870;52.448;13.270;2023-11-21T05:01:55;14.70;;;9.57;;
15536;SDS011;7870;52.448;13.270;2023-11-21T05:04:22;17.08;;;11.80;;
15536;SDS011;7870;52.448;13.270;2023-11-21T05:06:49;16.27;;;11.90;;
15536;SDS011;7870;52.448;13.270;2023-11-21T05:09:15;13.50;;;10.05;;
15536;SDS011;7870;52.448;13.270;2023-11-21T05:11:42;17.45;;;10.98;;
15536;SDS011;7870;52.448;13.270;2023-11-21T05:14:08;13.15;;;10.23;;
15536;SDS011;7870;52.448;13.270;2023-11-21T05:16:35;15.52;;;11.23;;
15536;SDS011;7870;52.448;13.270;2023-11-21T05:19:02;12.88;;;9.98;;
15536;SDS011;7870;52.448;13.270;2023-11-21T05:21:30;16.00;;;11.48;;
15536;SDS011;7870;52.448;13.270;2023-11-21T05:23:59;16.92;;;10.85;;
15536;SDS011;7870;52.448;13.270;2023-11-21T05:26:26;13.63;;;11.32;;
15536;SDS011;7870;52.448;13.270;2023-11-21T05:28:52;13.25;;;10.23;;
15536;SDS011;7870;52.448;13.270;2023-11-21T05:31:19;13.43;;;10.23;;
15536;SDS011;7870;52.448;13.270;2023-11-21T05:33:45;15.93;;;11.38;;
15536;SDS011;7870;52.448;13.270;2023-11-21T05:36:12;16.27;;;11.32;;
15536;SDS011;7870;52.448;13.270;2023-11-21T05:38:39;13.95;;;10.50;;
15536;SDS011;7870;52.448;13.270;2023-11-21T05:41:05;14.27;;;10.52;;
15536;SDS011;7870;52.448;13.270;2023-11-21T05:43:32;16.40;;;11.68;;
15536;SDS011;7870;52.448;13.270;2023-11-21T05:46:01;16.00;;;11.27;;
15536;SDS011;7870;52.448;13.270;2023-11-21T05:48:28;16.05;;;11.95;;
15536;SDS011;7870;52.448;13.270;2023-11-21T05:50:54;16.05;;;12.40;;
15536;SDS011;7870;52.448;13.270;2023-11-21T05:53:21;14.88;;;11.40;;
15536;SDS011;7870;52.448;13.270;2023-11-21T05:55:48;16.45;;;11.20;;
15536;SDS011;7870;52.448;13.270;2023-11-21T05:58:14;14.90;;;10.57;;
15536;SDS011;7870;52.448;13.270;2023-11-21T06:00:41;12.15;;;9.65;;
15536;SDS011;7870;52.448;13.270;2023-11-21T06:03:07;14.00;;;10.82;;
15536;SDS011;7870;52.448;13.270;2023-11-21T06:05:34;13.10;;;10.40;;
15536;SDS011;7870;52.448;13.270;2023-11-21T06:08:01;13.77;;;9.35;;
15536;SDS011;7870;52.448;13.270;2023-11-21T06:10:27;14.38;;;10.45;;
15536;SDS011;7870;52.448;13.270;2023-11-21T06:12:55;13.88;;;10.05;;
15536;SDS011;7870;52.448;13.270;2023-11-21T06:15:21;13.38;;;10.05;;
15536;SDS011;7870;52.448;13.270;2023-11-21T06:17:49;15.23;;;10.98;;
15536;SDS011;7870;52.448;13.270;2023-11-21T06:20:19;15.23;;;9.82;;
15536;SDS011;7870;52.448;13.270;2023-11-21T06:22:47;16.05;;;10.32;;
15536;SDS011;7870;52.448;13.270;2023-11-21T06:25:14;14.82;;;10.98;;
15536;SDS011;7870;52.448;13.270;2023-11-21T06:27:42;16.08;;;10.90;;
15536;SDS011;7870;52.448;13.270;2023-11-21T06:30:13;16.42;;;11.05;;
15536;SDS011;7870;52.448;13.270;2023-11-21T06:32:41;16.15;;;11.25;;
15536;SDS011;7870;52.448;13.270;2023-11-21T06:35:11;14.75;;;10.30;;
15536;SDS011;7870;52.448;13.270;2023-11-21T06:37:39;15.25;;;10.68;;
15536;SDS011;7870;52.448;13.270;2023-11-21T06:40:06;13.63;;;9.43;;
15536;SDS011;7870;52.448;13.270;2023-11-21T06:42:33;16.02;;;9.63;;
15536;SDS011;7870;52.448;13.270;2023-11-21T06:44:59;15.43;;;11.43;;
15536;SDS011;7870;52.448;13.270;2023-11-21T06:47:30;12.63;;;8.90;;
15536;SDS011;7870;52.448;13.270;2023-11-21T06:49:59;14.18;;;9.40;;
15536;SDS011;7870;52.448;13.270;2023-11-21T06:52:26;13.60;;;9.48;;
15536;SDS011;7870;52.448;13.270;2023-11-21T06:54:53;13.82;;;9.10;;
15536;SDS011;7870;52.448;13.270;2023-11-21T06:57:19;12.13;;;8.45;;
15536;SDS011;7870;52.448;13.270;2023-11-21T06:59:46;12.30;;;8.48;;
15536;SDS011;7870;52.448;13.270;2023-11-21T07:02:12;10.35;;;8.23;;
15536;SDS011;7870;52.448;13.270;2023-11-21T07:04:39;10.48;;;7.65;;
15536;SDS011;7870;52.448;13.270;2023-11-21T07:07:06;11.60;;;7.57;;
15536;SDS011;7870;52.448;13.270;2023-11-21T07:09:33;10.25;;;7.75;;
15536;SDS011;7870;52.448;13.270;2023-11-21T07:12:00;8.73;;;6.28;;
15536;SDS011;7870;52.448;13.270;2023-11-21T07:14:26;8.52;;;5.95;;
15536;SDS011;7870;52.448;13.270;2023-11-21T07:16:53;9.05;;;5.78;;
15536;SDS011;7870;52.448;13.270;2023-11-21T07:19:20;6.63;;;5.50;;
15536;SDS011;7870;52.448;13.270;2023-11-21T07:21:47;8.25;;;5.82;;
15536;SDS011;7870;52.448;13.270;2023-11-21T07:24:16;8.63;;;6.10;;
15536;SDS011;7870;52.448;13.270;2023-11-21T07:26:43;7.38;;;5.40;;
15536;SDS011;7870;52.448;13.270;2023-11-21T07:29:10;8.95;;;5.80;;
15536;SDS011;7870;52.448;13.270;2023-11-21T07:31:38;6.78;;;4.97;;
15536;SDS011;7870;52.448;13.270;2023-11-21T07:34:05;9.88;;;4.75;;
15536;SDS011;7870;52.448;13.270;2023-11-21T07:36:32;7.47;;;5.13;;
15536;SDS011;7870;52.448;13.270;2023-11-21T07:38:58;8.63;;;5.80;;
15536;SDS011;7870;52.448;13.270;2023-11-21T07:41:25;8.73;;;6.22;;
15536;SDS011;7870;52.448;13.270;2023-11-21T07:43:57;9.75;;;6.85;;
15536;SDS011;7870;52.448;13.270;2023-11-21T07:46:25;8.80;;;6.05;;
15536;SDS011;7870;52.448;13.270;2023-11-21T07:48:53;8.63;;;6.35;;
15536;SDS011;7870;52.448;13.270;2023-11-21T07:51:19;11.30;;;6.75;;
15536;SDS011;7870;52.448;13.270;2023-11-21T07:53:46;9.13;;;6.72;;
15536;SDS011;7870;52.448;13.270;2023-11-21T07:56:13;10.20;;;6.55;;
15536;SDS011;7870;52.448;13.270;2023-11-21T07:58:39;8.63;;;6.35;;
15536;SDS011;7870;52.448;13.270;2023-11-21T08:01:06;7.90;;;5.80;;
15536;SDS011;7870;52.448;13.270;2023-11-21T08:03:34;8.32;;;5.72;;
15536;SDS011;7870;52.448;13.270;2023-11-21T08:06:01;8.32;;;5.65;;
15536;SDS011;7870;52.448;13.270;2023-11-21T08:08:29;7.50;;;5.13;;
15536;SDS011;7870;52.448;13.270;2023-11-21T08:10:56;7.35;;;5.25;;
15536;SDS011;7870;52.448;13.270;2023-11-21T08:13:26;8.57;;;5.20;;
15536;SDS011;7870;52.448;13.270;2023-11-21T08:15:54;7.20;;;4.90;;
15536;SDS011;7870;52.448;13.270;2023-11-21T08:18:22;6.68;;;5.18;;
15536;SDS011;7870;52.448;13.270;2023-11-21T08:20:49;7.03;;;5.35;;
15536;SDS011;7870;52.448;13.270;2023-11-21T08:23:15;7.35;;;5.15;;
15536;SDS011;7870;52.448;13.270;2023-11-21T08:25:45;8.35;;;5.47;;
15536;SDS011;7870;52.448;13.270;2023-11-21T08:28:12;7.32;;;5.30;;
15536;SDS011;7870;52.448;13.270;2023-11-21T08:30:42;7.15;;;5.20;;
15536;SDS011;7870;52.448;13.270;2023-11-21T08:33:09;7.07;;;5.00;;
15536;SDS011;7870;52.448;13.270;2023-11-21T08:35:37;6.63;;;5.00;;
15536;SDS011;7870;52.448;13.270;2023-11-21T08:38:03;6.13;;;4.70;;
15536;SDS011;7870;52.448;13.270;2023-11-21T08:40:30;7.10;;;5.18;;
15536;SDS011;7870;52.448;13.270;2023-11-21T08:42:57;6.55;;;4.47;;
15536;SDS011;7870;52.448;13.270;2023-11-21T08:45:25;7.97;;;5.35;;
15536;SDS011;7870;52.448;13.270;2023-11-21T08:47:52;4.97;;;3.90;;
15536;SDS011;7870;52.448;13.270;2023-11-21T08:50:19;7.68;;;4.97;;
15536;SDS011;7870;52.448;13.270;2023-11-21T08:52:46;6.68;;;4.70;;
15536;SDS011;7870;52.448;13.270;2023-11-21T08:55:12;7.13;;;4.15;;
15536;SDS011;7870;52.448;13.270;2023-11-21T08:57:40;5.70;;;4.25;;
15536;SDS011;7870;52.448;13.270;2023-11-21T09:00:07;7.00;;;5.05;;
15536;SDS011;7870;52.448;13.270;2023-11-21T09:02:43;6.97;;;4.25;;
15536;SDS011;7870;52.448;13.270;2023-11-21T09:05:10;5.15;;;4.03;;
15536;SDS011;7870;52.448;13.270;2023-11-21T09:07:38;6.65;;;4.35;;
15536;SDS011;7870;52.448;13.270;2023-11-21T09:10:07;7.75;;;5.15;;
15536;SDS011;7870;52.448;13.270;2023-11-21T09:12:35;6.97;;;5.10;;
15536;SDS011;7870;52.448;13.270;2023-11-21T09:15:06;5.20;;;3.92;;
15536;SDS011;7870;52.448;13.270;2023-11-21T09:17:34;6.30;;;4.47;;
15536;SDS011;7870;52.448;13.270;2023-11-21T09:20:01;5.43;;;3.90;;
15536;SDS011;7870;52.448;13.270;2023-11-21T09:22:30;5.80;;;4.38;;
15536;SDS011;7870;52.448;13.270;2023-11-21T09:24:58;5.97;;;3.70;;
15536;SDS011;7870;52.448;13.270;2023-11-21T09:27:24;6.18;;;3.45;;
15536;SDS011;7870;52.448;13.270;2023-11-21T09:29:52;5.35;;;3.60;;
15536;SDS011;7870;52.448;13.270;2023-11-21T09:32:19;6.75;;;4.38;;
15536;SDS011;7870;52.448;13.270;2023-11-21T09:34:48;5.32;;;3.15;;
15536;SDS011;7870;52.448;13.270;2023-11-21T09:37:15;6.00;;;3.60;;
15536;SDS011;7870;52.448;13.270;2023-11-21T09:39:42;4.75;;;3.22;;
15536;SDS011;7870;52.448;13.270;2023-11-21T09:42:12;4.85;;;2.90;;
15536;SDS011;7870;52.448;13.270;2023-11-21T09:45:03;4.65;;;2.92;;
15536;SDS011;7870;52.448;13.270;2023-11-21T09:47:32;4.05;;;3.13;;
15536;SDS011;7870;52.448;13.270;2023-11-21T09:50:02;5.15;;;3.70;;
15536;SDS011;7870;52.448;13.270;2023-11-21T09:52:29;5.90;;;3.70;;
15536;SDS011;7870;52.448;13.270;2023-11-21T09:54:58;6.00;;;3.75;;
15536;SDS011;7870;52.448;13.270;2023-11-21T09:57:26;6.05;;;4.10;;
15536;SDS011;7870;52.448;13.270;2023-11-21T09:59:53;6.53;;;4.00;;
15536;SDS011;7870;52.448;13.270;2023-11-21T10:02:27;6.05;;;3.97;;
15536;SDS011;7870;52.448;13.270;2023-11-21T10:04:56;5.53;;;4.10;;
15536;SDS011;7870;52.448;13.270;2023-11-21T10:07:23;5.35;;;4.03;;
15536;SDS011;7870;52.448;13.270;2023-11-21T10:09:50;6.28;;;4.35;;
15536;SDS011;7870;52.448;13.270;2023-11-21T10:12:17;6.22;;;4.13;;
15536;SDS011;7870;52.448;13.270;2023-11-21T10:14:46;5.53;;;4.00;;
15536;SDS011;7870;52.448;13.270;2023-11-21T10:17:14;4.70;;;3.25;;
15536;SDS011;7870;52.448;13.270;2023-11-21T10:19:42;6.25;;;3.15;;
15536;SDS011;7870;52.448;13.270;2023-11-21T10:22:10;4.90;;;3.38;;
15536;SDS011;7870;52.448;13.270;2023-11-21T10:24:36;5.35;;;3.28;;
15536;SDS011;7870;52.448;13.270;2023-11-21T10:27:17;4.28;;;3.55;;
15536;SDS011;7870;52.448;13.270;2023-11-21T10:29:43;4.97;;;3.22;;
15536;SDS011;7870;52.448;13.270;2023-11-21T10:32:11;5.35;;;3.15;;
15536;SDS011;7870;52.448;13.270;2023-11-21T10:34:38;4.88;;;3.63;;
15536;SDS011;7870;52.448;13.270;2023-11-21T10:37:11;5.32;;;3.28;;
15536;SDS011;7870;52.448;13.270;2023-11-21T10:39:38;7.03;;;4.05;;
15536;SDS011;7870;52.448;13.270;2023-11-21T10:42:07;4.80;;;3.67;;
15536;SDS011;7870;52.448;13.270;2023-11-21T10:44:34;6.53;;;4.38;;
15536;SDS011;7870;52.448;13.270;2023-11-21T10:47:01;8.23;;;5.15;;
15536;SDS011;7870;52.448;13.270;2023-11-21T10:49:29;8.02;;;4.60;;
15536;SDS011;7870;52.448;13.270;2023-11-21T10:51:56;8.02;;;4.53;;
15536;SDS011;7870;52.448;13.270;2023-11-21T10:54:23;6.47;;;4.68;;
15536;SDS011;7870;52.448;13.270;2023-11-21T10:56:53;5.90;;;4.72;;
15536;SDS011;7870;52.448;13.270;2023-11-21T10:59:23;7.25;;;5.15;;
15536;SDS011;7870;52.448;13.270;2023-11-21T11:01:51;7.53;;;5.50;;
15536;SDS011;7870;52.448;13.270;2023-11-21T11:04:19;8.35;;;5.25;;
15536;SDS011;7870;52.448;13.270;2023-11-21T11:06:49;6.00;;;4.40;;
15536;SDS011;7870;52.448;13.270;2023-11-21T11:09:19;6.60;;;4.75;;
15536;SDS011;7870;52.448;13.270;2023-11-21T11:11:46;8.60;;;4.97;;
15536;SDS011;7870;52.448;13.270;2023-11-21T11:14:13;5.97;;;4.35;;
15536;SDS011;7870;52.448;13.270;2023-11-21T11:16:40;5.40;;;3.67;;
15536;SDS011;7870;52.448;13.270;2023-11-21T11:19:07;5.10;;;3.85;;
15536;SDS011;7870;52.448;13.270;2023-11-21T11:21:45;6.43;;;4.38;;
15536;SDS011;7870;52.448;13.270;2023-11-21T11:27:22;6.72;;;4.13;;
15536;SDS011;7870;52.448;13.270;2023-11-21T11:30:05;8.68;;;4.55;;
15536;SDS011;7870;52.448;13.270;2023-11-21T11:32:46;6.05;;;3.88;;
15536;SDS011;7870;52.448;13.270;2023-11-21T11:35:26;6.57;;;3.88;;
15536;SDS011;7870;52.448;13.270;2023-11-21T11:38:00;7.78;;;4.13;;
15536;SDS011;7870;52.448;13.270;2023-11-21T11:40:41;5.30;;;3.55;;
15536;SDS011;7870;52.448;13.270;2023-11-21T11:43:11;6.60;;;3.97;;
15536;SDS011;7870;52.448;13.270;2023-11-21T11:45:38;5.32;;;3.90;;
15536;SDS011;7870;52.448;13.270;2023-11-21T11:48:10;5.57;;;4.13;;
15536;SDS011;7870;52.448;13.270;2023-11-21T11:53:35;7.18;;;5.50;;
15536;SDS011;7870;52.448;13.270;2023-11-21T11:58:49;7.60;;;5.80;;
15536;SDS011;7870;52.448;13.270;2023-11-21T12:01:20;8.43;;;5.47;;
15536;SDS011;7870;52.448;13.270;2023-11-21T12:06:46;7.60;;;5.78;;
15536;SDS011;7870;52.448;13.270;2023-11-21T12:09:20;6.68;;;5.40;;
15536;SDS011;7870;52.448;13.270;2023-11-21T12:11:51;7.95;;;6.50;;
15536;SDS011;7870;52.448;13.270;2023-11-21T12:14:17;8.52;;;6.50;;
15536;SDS011;7870;52.448;13.270;2023-11-21T12:16:44;7.10;;;6.18;;
15536;SDS011;7870;52.448;13.270;2023-11-21T12:19:11;7.38;;;5.35;;
15536;SDS011;7870;52.448;13.270;2023-11-21T12:21:38;7.55;;;5.80;;
15536;SDS011;7870;52.448;13.270;2023-11-21T12:24:07;7.72;;;5.38;;
15536;SDS011;7870;52.448;13.270;2023-11-21T12:26:35;7.97;;;5.60;;
15536;SDS011;7870;52.448;13.270;2023-11-21T12:29:05;7.40;;;5.82;;
15536;SDS011;7870;52.448;13.270;2023-11-21T12:31:34;10.65;;;6.82;;
15536;SDS011;7870;52.448;13.270;2023-11-21T12:34:01;9.43;;;7.25;;
15536;SDS011;7870;52.448;13.270;2023-11-21T12:36:28;9.15;;;7.30;;
15536;SDS011;7870;52.448;13.270;2023-11-21T12:38:56;10.15;;;7.43;;
15536;SDS011;7870;52.448;13.270;2023-11-21T12:41:23;8.93;;;6.35;;
15536;SDS011;7870;52.448;13.270;2023-11-21T12:43:49;10.85;;;7.68;;
15536;SDS011;7870;52.448;13.270;2023-11-21T12:46:16;7.47;;;6.32;;
15536;SDS011;7870;52.448;13.270;2023-11-21T12:48:43;9.55;;;6.25;;
15536;SDS011;7870;52.448;13.270;2023-11-21T12:51:11;9.30;;;6.57;;
15536;SDS011;7870;52.448;13.270;2023-11-21T12:53:40;11.57;;;6.93;;
15536;SDS011;7870;52.448;13.270;2023-11-21T12:56:09;9.88;;;6.25;;
15536;SDS011;7870;52.448;13.270;2023-11-21T12:58:38;8.50;;;5.70;;
15536;SDS011;7870;52.448;13.270;2023-11-21T13:01:06;10.50;;;6.35;;
15536;SDS011;7870;52.448;13.270;2023-11-21T13:03:38;8.98;;;6.05;;
15536;SDS011;7870;52.448;13.270;2023-11-21T13:06:07;10.10;;;6.50;;
15536;SDS011;7870;52.448;13.270;2023-11-21T13:08:36;10.52;;;6.38;;
15536;SDS011;7870;52.448;13.270;2023-11-21T13:11:05;9.75;;;6.68;;
15536;SDS011;7870;52.448;13.270;2023-11-21T13:13:32;10.30;;;6.85;;
15536;SDS011;7870;52.448;13.270;2023-11-21T13:16:00;9.07;;;6.30;;
15536;SDS011;7870;52.448;13.270;2023-11-21T13:18:28;9.75;;;6.30;;
15536;SDS011;7870;52.448;13.270;2023-11-21T13:20:55;11.45;;;7.25;;
15536;SDS011;7870;52.448;13.270;2023-11-21T13:23:24;10.43;;;6.05;;
15536;SDS011;7870;52.448;13.270;2023-11-21T13:25:52;9.88;;;6.60;;
15536;SDS011;7870;52.448;13.270;2023-11-21T13:28:30;10.18;;;7.95;;
15536;SDS011;7870;52.448;13.270;2023-11-21T13:31:01;9.70;;;6.72;;
15536;SDS011;7870;52.448;13.270;2023-11-21T13:33:49;8.85;;;6.90;;
15536;SDS011;7870;52.448;13.270;2023-11-21T13:36:23;9.88;;;6.68;;
15536;SDS011;7870;52.448;13.270;2023-11-21T13:38:50;8.10;;;6.80;;
15536;SDS011;7870;52.448;13.270;2023-11-21T13:41:18;9.27;;;7.28;;
15536;SDS011;7870;52.448;13.270;2023-11-21T13:43:46;9.45;;;6.68;;
15536;SDS011;7870;52.448;13.270;2023-11-21T13:46:16;9.70;;;7.68;;
15536;SDS011;7870;52.448;13.270;2023-11-21T13:48:49;11.07;;;7.50;;
15536;SDS011;7870;52.448;13.270;2023-11-21T13:51:22;11.95;;;8.15;;
15536;SDS011;7870;52.448;13.270;2023-11-21T13:53:57;9.82;;;7.80;;
15536;SDS011;7870;52.448;13.270;2023-11-21T13:56:25;9.23;;;7.20;;
15536;SDS011;7870;52.448;13.270;2023-11-21T13:58:54;14.13;;;10.80;;
15536;SDS011;7870;52.448;13.270;2023-11-21T14:01:24;14.95;;;9.35;;
15536;SDS011;7870;52.448;13.270;2023-11-21T14:03:57;13.20;;;9.10;;
15536;SDS011;7870;52.448;13.270;2023-11-21T14:06:28;15.85;;;11.80;;
15536;SDS011;7870;52.448;13.270;2023-11-21T14:09:00;17.33;;;12.15;;
15536;SDS011;7870;52.448;13.270;2023-11-21T14:11:31;14.27;;;10.93;;
15536;SDS011;7870;52.448;13.270;2023-11-21T14:14:05;14.85;;;11.93;;
15536;SDS011;7870;52.448;13.270;2023-11-21T14:16:31;13.80;;;10.73;;
15536;SDS011;7870;52.448;13.270;2023-11-21T14:18:58;13.50;;;10.23;;
15536;SDS011;7870;52.448;13.270;2023-11-21T14:21:31;15.95;;;12.32;;
15536;SDS011;7870;52.448;13.270;2023-11-21T14:23:58;16.10;;;12.15;;
15536;SDS011;7870;52.448;13.270;2023-11-21T14:26:24;15.63;;;10.85;;
15536;SDS011;7870;52.448;13.270;2023-11-21T14:28:51;14.95;;;11.00;;
15536;SDS011;7870;52.448;13.270;2023-11-21T14:31:19;14.95;;;10.98;;
15536;SDS011;7870;52.448;13.270;2023-11-21T14:33:46;17.27;;;12.73;;
15536;SDS011;7870;52.448;13.270;2023-11-21T14:36:12;19.00;;;12.20;;
15536;SDS011;7870;52.448;13.270;2023-11-21T14:38:39;20.55;;;13.35;;
15536;SDS011;7870;52.448;13.270;2023-11-21T14:41:06;18.05;;;12.25;;
15536;SDS011;7870;52.448;13.270;2023-11-21T14:43:34;24.08;;;15.13;;
15536;SDS011;7870;52.448;13.270;2023-11-21T14:46:02;21.88;;;14.30;;
15536;SDS011;7870;52.448;13.270;2023-11-21T14:48:30;19.85;;;14.25;;
15536;SDS011;7870;52.448;13.270;2023-11-21T14:51:09;25.35;;;15.90;;
15536;SDS011;7870;52.448;13.270;2023-11-21T14:53:38;22.73;;;14.13;;
15536;SDS011;7870;52.448;13.270;2023-11-21T14:56:20;27.65;;;16.85;;
15536;SDS011;7870;52.448;13.270;2023-11-21T14:58:57;28.23;;;19.02;;